International Skating Union - Official Site

Essent ISU World Cup Heerenveen
November 16-18, 2012

Draw | Lap Times | Index | World Cup

Referee: Dan  IMMERFALL  (USA)
Starter: Janny  SMEGEN  (NED)
StartTime: EndTime: Air Temp: Ice Temp: Humidity:

Detailed Result

Result Mass Start Men
Rankings as of Nov 18 2012 5:50PM
Rank: No.: Name: Nation: Sprint Points: Time: Behind: Points:
1 81 Christijn  Groeneveld NED NED 31 10:14.55 100
2 94 Arjan  Stroetinga NED NED 15 10:14.61 0.06 80
3 32 Alexis  Contin FRA FRA 12 10:14.67 0.12 70
4 5 Bart  Swings BEL BEL 8 10:14.68 0.13 60
5 60 Dmitry  Babenko KAZ KAZ 6 10:22.76 8.21 50
6 77 Jorrit  Bergsma NED NED 5 10:25.56 11.01 45
7 44 Marco  Weber GER GER 3 10:27.31 12.76 40
8 9 Jordan  Belchos CAN CAN 2 10:26.36 11.81 36
9 100 Fredrik  van der Horst NOR NOR 2 10:37.50 22.95 32
10 11 Tyler  Derraugh CAN CAN 2 10:42.26 27.71 28
11 73 Seung-Hoon  Lee KOR KOR 1 10:25.40 10.85 24
12 99 Tormod Bjørnetun  Haugen NOR NOR 1 10:33.45 18.90 21
13 70 Byung-Wook  Ko KOR KOR   10:26.28 11.73 18
14 135 Jonathan  Garcia USA USA   10:26.52 11.97 16
15 75 Haralds  Silovs LAT LAT   10:26.69 12.14 14
16 139 Patrick  Meek USA USA   10:28.98 14.43 12
17 120 Dmitri  Fedotov RUS RUS   10:29.37 14.82 10
18 20 Bailin  Li CHN CHN   10:36.34 21.79 8
19 107 Mark  Jackson NZL NZL   10:39.28 24.73 6
20 111 Sebastian  Druszkiewicz POL POL   10:23.23 8.68 5